createdAt,value
2023-05-11T00:02:24.837Z,83.17
2023-05-11T00:04:51.493Z,83.90
2023-05-11T00:07:18.106Z,83.84
2023-05-11T00:09:44.712Z,83.20
2023-05-11T00:12:11.500Z,83.65
2023-05-11T00:14:38.131Z,83.52
2023-05-11T00:17:04.837Z,84.24
2023-05-11T00:19:31.655Z,83.90
2023-05-11T00:21:59.018Z,83.35
2023-05-11T00:24:26.081Z,83.90
2023-05-11T00:26:52.729Z,83.54
2023-05-11T00:29:19.673Z,82.63
2023-05-11T00:31:50.078Z,82.41
2023-05-11T00:34:17.209Z,82.72
2023-05-11T00:36:44.392Z,82.82
2023-05-11T00:39:11.951Z,82.81
2023-05-11T00:41:38.789Z,82.03
2023-05-11T00:44:05.937Z,83.41
2023-05-11T00:46:32.588Z,83.12
2023-05-11T00:48:59.579Z,82.79
2023-05-11T00:51:26.326Z,82.08
2023-05-11T00:53:53.042Z,81.70
2023-05-11T00:56:20.323Z,82.21
2023-05-11T00:58:47.556Z,82.20
2023-05-11T01:01:17.760Z,81.81
2023-05-11T01:03:45.240Z,82.04
2023-05-11T01:06:18.829Z,82.01
2023-05-11T01:08:55.051Z,81.48
2023-05-11T01:11:57.164Z,81.70
2023-05-11T01:14:36.234Z,82.65
2023-05-11T01:17:09.816Z,81.57
2023-05-11T01:19:49.967Z,81.88
2023-05-11T01:22:39.039Z,82.41
2023-05-11T01:25:13.205Z,82.06
2023-05-11T01:28:11.166Z,81.97
2023-05-11T01:30:55.390Z,81.94
2023-05-11T01:33:28.086Z,81.83
2023-05-11T01:35:56.954Z,81.07
2023-05-11T01:38:24.714Z,80.60
2023-05-11T01:40:55.680Z,80.33
2023-05-11T01:43:24.344Z,80.60
2023-05-11T01:50:09.678Z,82.10
2023-05-11T01:52:39.858Z,81.77
2023-05-11T01:55:07.885Z,80.72
2023-05-11T01:57:37.016Z,82.19
2023-05-11T02:00:04.385Z,83.04
2023-05-11T02:02:40.153Z,83.31
2023-05-11T02:05:07.882Z,84.14
2023-05-11T02:07:35.452Z,83.89
2023-05-11T02:10:02.483Z,84.15
2023-05-11T02:12:33.797Z,84.23
2023-05-11T02:15:02.085Z,84.55
2023-05-11T02:17:29.417Z,83.14
2023-05-11T02:19:57.296Z,83.44
2023-05-11T02:22:25.752Z,82.79
2023-05-11T02:24:52.389Z,82.56
2023-05-11T02:27:19.066Z,82.48
2023-05-11T02:29:46.518Z,82.50
2023-05-11T02:32:17.357Z,82.51
2023-05-11T02:34:50.546Z,83.11
2023-05-11T02:37:22.659Z,82.53
2023-05-11T02:39:56.007Z,81.76
2023-05-11T02:42:23.006Z,82.20
2023-05-11T02:44:56.726Z,82.93
2023-05-11T02:47:27.696Z,83.25
2023-05-11T02:49:56.085Z,82.77
2023-05-11T02:52:27.078Z,81.22
2023-05-11T02:54:54.054Z,81.63
2023-05-11T02:57:21.360Z,82.04
2023-05-11T02:59:48.333Z,82.76
2023-05-11T03:02:15.129Z,82.97
2023-05-11T03:04:42.710Z,82.44
2023-05-11T03:07:09.568Z,83.08
2023-05-11T03:09:36.537Z,83.22
2023-05-11T03:12:03.984Z,82.35
2023-05-11T03:14:34.169Z,82.29
2023-05-11T03:19:29.081Z,82.11
2023-05-11T03:21:58.441Z,82.40
2023-05-11T03:24:26.151Z,83.17
2023-05-11T03:26:55.156Z,82.65
2023-05-11T03:29:25.633Z,82.75
2023-05-11T03:31:52.556Z,82.76
2023-05-11T03:34:20.748Z,82.67
2023-05-11T03:36:52.751Z,82.76
2023-05-11T03:39:21.426Z,82.29
2023-05-11T03:41:50.931Z,82.62
2023-05-11T03:44:22.387Z,83.27
2023-05-11T03:46:50.926Z,82.51
2023-05-11T03:49:18.685Z,82.16
2023-05-11T03:51:45.906Z,82.29
2023-05-11T03:54:12.811Z,82.45
2023-05-11T03:56:40.258Z,82.47
2023-05-11T03:59:07.870Z,81.99
2023-05-11T04:01:35.152Z,82.14
2023-05-11T04:04:01.991Z,82.06
2023-05-11T04:06:28.819Z,81.55
2023-05-11T04:09:06.819Z,81.56
2023-05-11T04:11:37.121Z,82.15
2023-05-11T04:14:04.557Z,81.87
2023-05-11T04:16:31.369Z,81.64
2023-05-11T04:18:58.203Z,81.62
2023-05-11T04:21:24.930Z,81.88
2023-05-11T04:23:51.714Z,81.54
2023-05-11T04:26:18.507Z,81.79
2023-05-11T04:28:45.331Z,81.30
2023-05-11T04:31:12.924Z,80.57
2023-05-11T04:33:39.703Z,81.60
2023-05-11T04:36:06.769Z,81.60
2023-05-11T04:38:36.334Z,81.75
2023-05-11T04:41:05.287Z,81.67
2023-05-11T04:43:32.673Z,81.69
2023-05-11T04:45:59.443Z,81.58
2023-05-11T04:48:28.089Z,80.37
2023-05-11T04:50:55.413Z,80.78
2023-05-11T04:53:25.625Z,80.73
2023-05-11T04:55:52.667Z,80.75
2023-05-11T04:58:19.251Z,81.36
2023-05-11T05:00:46.014Z,81.03
2023-05-11T05:03:12.780Z,80.71
2023-05-11T05:05:39.513Z,80.80
2023-05-11T05:08:07.379Z,81.20
2023-05-11T05:10:34.219Z,81.01
2023-05-11T05:13:01.199Z,79.99
2023-05-11T05:15:28.048Z,80.66
2023-05-11T05:17:54.712Z,80.49
2023-05-11T05:20:21.844Z,80.26
2023-05-11T05:22:48.638Z,80.36
2023-05-11T05:28:04.179Z,80.02
2023-05-11T05:30:31.285Z,80.16
2023-05-11T05:33:17.468Z,80.17
2023-05-11T05:35:46.657Z,80.51
2023-05-11T05:38:33.302Z,79.52
2023-05-11T05:41:00.351Z,79.82
2023-05-11T05:43:30.617Z,80.19
2023-05-11T05:46:04.125Z,79.13
2023-05-11T05:48:40.988Z,79.10
2023-05-11T05:51:09.115Z,79.26
2023-05-11T05:53:49.900Z,79.79
2023-05-11T05:56:38.302Z,81.25
2023-05-11T05:59:08.834Z,81.25
2023-05-11T06:01:36.122Z,80.35
2023-05-11T06:04:03.774Z,80.98
2023-05-11T06:09:39.195Z,80.55
2023-05-11T06:12:06.701Z,81.29
2023-05-11T06:14:36.458Z,80.07
2023-05-11T06:17:15.511Z,79.57
2023-05-11T06:19:42.699Z,79.55
2023-05-11T06:22:29.516Z,78.41
2023-05-11T06:24:57.493Z,78.60
2023-05-11T06:27:25.682Z,78.86
2023-05-11T06:30:12.832Z,78.35
2023-05-11T06:32:39.909Z,78.77
2023-05-11T06:35:07.687Z,78.15
2023-05-11T06:37:46.573Z,78.68
2023-05-11T06:40:16.399Z,78.73
2023-05-11T06:42:43.694Z,78.65
2023-05-11T06:45:11.589Z,78.82
2023-05-11T06:48:01.192Z,77.75
2023-05-11T06:50:36.894Z,77.70
2023-05-11T06:53:03.641Z,78.17
2023-05-11T06:55:30.500Z,77.26
2023-05-11T06:57:57.207Z,77.88
2023-05-11T07:00:42.564Z,77.60
2023-05-11T07:03:16.042Z,78.88
2023-05-11T07:08:42.618Z,78.25
2023-05-11T07:11:09.628Z,76.84
2023-05-11T07:13:36.271Z,76.25
2023-05-11T07:16:03.627Z,76.86
2023-05-11T07:18:48.987Z,75.64
2023-05-11T07:21:16.200Z,75.31
2023-05-11T07:23:42.933Z,74.69
2023-05-11T07:26:09.591Z,74.17
2023-05-11T07:28:37.221Z,73.79
2023-05-11T07:31:04.448Z,72.70
2023-05-11T07:33:31.756Z,73.27
2023-05-11T07:35:58.494Z,74.18
2023-05-11T07:41:32.975Z,72.19
2023-05-11T07:44:05.758Z,71.72
2023-05-11T07:46:38.390Z,71.83
2023-05-11T07:49:16.804Z,72.11
2023-05-11T07:51:47.890Z,71.42
2023-05-11T07:54:14.501Z,70.90
2023-05-11T07:56:41.952Z,70.20
2023-05-11T07:59:08.602Z,70.15
2023-05-11T08:01:47.461Z,68.78
2023-05-11T08:04:14.462Z,67.31
2023-05-11T08:06:41.204Z,68.47
2023-05-11T08:09:26.696Z,67.53
2023-05-11T08:11:56.442Z,67.07
2023-05-11T08:14:32.790Z,67.69
2023-05-11T08:17:18.446Z,66.52
2023-05-11T08:20:10.269Z,66.63
2023-05-11T08:22:37.171Z,65.20
2023-05-11T08:25:10.424Z,63.12
2023-05-11T08:27:43.490Z,64.80
2023-05-11T08:30:13.988Z,64.59
2023-05-11T08:32:58.126Z,63.59
2023-05-11T08:35:25.961Z,65.20
2023-05-11T08:38:05.210Z,64.53
2023-05-11T08:40:53.626Z,64.67
2023-05-11T08:50:23.751Z,65.98
2023-05-11T08:52:50.549Z,64.84
2023-05-11T08:55:17.468Z,62.79
2023-05-11T08:57:46.094Z,63.01
2023-05-11T09:00:13.268Z,62.65
2023-05-11T09:02:40.479Z,62.34
2023-05-11T09:05:07.955Z,62.07
2023-05-11T09:07:37.377Z,62.57
2023-05-11T09:10:04.358Z,63.49
2023-05-11T09:12:31.048Z,63.21
2023-05-11T09:15:01.987Z,65.33
2023-05-11T09:17:29.018Z,64.94
2023-05-11T09:20:05.626Z,63.47
2023-05-11T09:22:36.052Z,63.03
2023-05-11T09:25:03.998Z,62.33
2023-05-11T09:27:31.270Z,62.24
2023-05-11T09:30:10.747Z,60.83
2023-05-11T09:32:54.496Z,60.22
2023-05-11T09:35:24.463Z,59.50
2023-05-11T09:38:05.059Z,58.04
2023-05-11T09:40:46.360Z,57.05
2023-05-11T09:43:24.144Z,56.32
2023-05-11T09:45:52.693Z,57.12
2023-05-11T09:48:19.355Z,56.80
2023-05-11T09:50:50.335Z,55.77
2023-05-11T09:53:17.463Z,57.76
2023-05-11T09:55:56.572Z,58.56
2023-05-11T09:58:23.316Z,58.53
2023-05-11T10:00:51.260Z,59.11
2023-05-11T10:03:18.449Z,59.46
2023-05-11T10:05:59.209Z,61.22
2023-05-11T10:08:36.036Z,61.48
2023-05-11T10:11:03.032Z,61.76
2023-05-11T10:13:30.346Z,61.22
2023-05-11T10:15:58.386Z,59.38
2023-05-11T10:18:25.470Z,59.94
2023-05-11T10:20:53.193Z,58.81
2023-05-11T10:23:20.691Z,57.91
2023-05-11T10:25:48.102Z,56.63
2023-05-11T10:28:15.059Z,58.96
2023-05-11T10:30:41.868Z,59.77
2023-05-11T10:33:09.332Z,58.69
2023-05-11T10:35:38.417Z,58.30
2023-05-11T10:38:06.751Z,57.39
2023-05-11T10:40:38.891Z,56.53
2023-05-11T10:43:17.898Z,55.98
2023-05-11T10:46:36.055Z,56.13
2023-05-11T10:49:29.071Z,54.28
2023-05-11T10:52:13.602Z,55.73
2023-05-11T10:55:09.556Z,58.20
2023-05-11T10:57:47.755Z,58.60
2023-05-11T11:00:20.791Z,56.89
2023-05-11T11:02:48.414Z,56.97
2023-05-11T11:05:32.667Z,55.46
2023-05-11T11:08:00.457Z,54.41
2023-05-11T11:10:39.024Z,54.46
2023-05-11T11:13:09.371Z,55.17
2023-05-11T11:15:54.382Z,55.67
2023-05-11T11:18:23.968Z,54.15
2023-05-11T11:20:55.522Z,55.85
2023-05-11T11:23:40.347Z,56.18
2023-05-11T11:26:07.968Z,57.33
2023-05-11T11:29:02.638Z,58.21
2023-05-11T11:31:30.770Z,56.28
2023-05-11T11:34:00.819Z,55.82
2023-05-11T11:37:03.765Z,56.38
2023-05-11T11:39:42.710Z,54.81
2023-05-11T11:42:16.648Z,53.84
2023-05-11T11:44:44.788Z,52.88
2023-05-11T11:47:16.337Z,52.78
2023-05-11T11:49:48.376Z,52.38
2023-05-11T11:52:26.944Z,49.58
2023-05-11T11:54:55.923Z,51.75
2023-05-11T11:57:34.769Z,55.15
2023-05-11T12:00:10.631Z,53.28
2023-05-11T12:02:44.605Z,53.09
2023-05-11T12:05:19.503Z,51.33
2023-05-11T12:07:49.429Z,54.74
2023-05-11T12:10:20.113Z,54.65
2023-05-11T12:12:47.915Z,53.35
2023-05-11T12:15:24.500Z,53.83
2023-05-11T12:17:51.157Z,54.35
2023-05-11T12:20:19.534Z,54.56
2023-05-11T12:22:49.025Z,53.79
2023-05-11T12:25:18.145Z,53.25
2023-05-11T12:27:49.098Z,53.64
2023-05-11T12:30:23.201Z,53.18
2023-05-11T12:32:56.661Z,52.19
2023-05-11T12:35:28.087Z,49.86
2023-05-11T12:37:55.914Z,50.99
2023-05-11T12:40:22.946Z,51.06
2023-05-11T12:42:56.267Z,50.85
2023-05-11T12:45:24.706Z,50.49
2023-05-11T12:47:53.498Z,53.02
2023-05-11T12:50:21.346Z,51.58
2023-05-11T12:52:49.136Z,52.81
2023-05-11T12:55:27.675Z,52.86
2023-05-11T12:58:07.648Z,52.68
2023-05-11T13:00:34.503Z,49.25
2023-05-11T13:03:01.169Z,50.11
2023-05-11T13:05:28.308Z,51.27
2023-05-11T13:08:02.636Z,52.64
2023-05-11T13:10:29.918Z,51.15
2023-05-11T13:12:56.718Z,51.88
2023-05-11T13:15:25.147Z,52.66
2023-05-11T13:17:59.474Z,53.49
2023-05-11T13:20:33.113Z,54.32
2023-05-11T13:23:03.940Z,52.32
2023-05-11T13:25:30.671Z,51.56
2023-05-11T13:27:57.307Z,50.03
2023-05-11T13:30:24.096Z,50.69
2023-05-11T13:32:50.781Z,47.69
2023-05-11T13:35:17.798Z,48.95
2023-05-11T13:37:44.635Z,48.41
2023-05-11T13:40:12.118Z,47.00
2023-05-11T13:42:38.907Z,45.90
2023-05-11T13:45:06.150Z,46.69
2023-05-11T13:47:32.907Z,47.19
2023-05-11T13:49:59.546Z,46.93
2023-05-11T13:52:26.289Z,48.65
2023-05-11T13:54:52.992Z,48.70
2023-05-11T13:57:19.738Z,48.34
2023-05-11T13:59:46.436Z,46.18
2023-05-11T14:02:13.268Z,48.66
2023-05-11T14:04:40.530Z,46.59
2023-05-11T14:07:07.722Z,49.39
2023-05-11T14:09:34.419Z,45.57
2023-05-11T14:12:01.075Z,46.32
2023-05-11T14:14:27.712Z,47.08
2023-05-11T14:16:54.465Z,46.01
2023-05-11T14:19:21.121Z,46.46
2023-05-11T14:21:48.702Z,46.79
2023-05-11T14:24:15.365Z,46.97
2023-05-11T14:26:42.074Z,45.13
2023-05-11T14:29:08.937Z,46.09
2023-05-11T14:31:36.519Z,45.02
2023-05-11T14:34:04.168Z,47.38
2023-05-11T14:36:32.054Z,49.30
2023-05-11T14:38:58.646Z,50.71
2023-05-11T14:41:25.673Z,52.47
2023-05-11T14:43:52.579Z,50.83
2023-05-11T14:46:19.640Z,51.84
2023-05-11T14:48:46.424Z,51.62
2023-05-11T14:51:13.142Z,50.27
2023-05-11T14:53:39.829Z,51.56
2023-05-11T14:56:06.952Z,51.75
2023-05-11T14:58:33.716Z,51.57
2023-05-11T15:01:00.811Z,51.42
2023-05-11T15:03:27.700Z,51.63
2023-05-11T15:05:54.432Z,53.07
2023-05-11T15:08:29.559Z,48.64
2023-05-11T15:10:57.304Z,48.96
2023-05-11T15:13:24.157Z,48.02
2023-05-11T15:15:51.617Z,48.23
2023-05-11T15:18:18.745Z,45.52
2023-05-11T15:20:46.196Z,45.54
2023-05-11T15:23:16.729Z,45.85
2023-05-11T15:25:44.828Z,47.81
2023-05-11T15:28:11.921Z,45.26
2023-05-11T15:30:38.741Z,43.09
2023-05-11T15:33:05.521Z,43.16
2023-05-11T15:35:34.603Z,45.42
2023-05-11T15:38:01.249Z,45.89
2023-05-11T15:40:29.319Z,48.02
2023-05-11T15:42:58.451Z,47.82
2023-05-11T15:45:25.753Z,49.17
2023-05-11T15:47:52.572Z,49.96
2023-05-11T15:50:19.629Z,49.44
2023-05-11T15:52:46.484Z,48.58
2023-05-11T15:55:13.189Z,48.84
2023-05-11T15:57:39.741Z,47.57
2023-05-11T16:00:07.012Z,48.26
2023-05-11T16:02:35.737Z,49.57
2023-05-11T16:05:02.454Z,50.04
2023-05-11T16:07:29.757Z,50.95
2023-05-11T16:09:56.521Z,50.68
2023-05-11T16:12:23.256Z,51.49
2023-05-11T16:14:49.901Z,52.70
2023-05-11T16:17:16.590Z,54.69
2023-05-11T16:19:43.664Z,53.76
2023-05-11T16:22:10.274Z,54.27
2023-05-11T16:24:36.936Z,53.30
2023-05-11T16:27:03.986Z,53.70
2023-05-11T16:29:30.810Z,53.87
2023-05-11T16:31:57.603Z,53.58
2023-05-11T16:34:24.372Z,53.82
2023-05-11T16:36:51.027Z,55.61
2023-05-11T16:39:17.746Z,55.82
2023-05-11T16:41:44.462Z,55.05
2023-05-11T16:44:11.156Z,51.01
2023-05-11T16:46:37.813Z,47.96
2023-05-11T16:49:04.481Z,47.34
2023-05-11T16:51:31.132Z,45.77
2023-05-11T16:53:58.052Z,43.39
2023-05-11T16:56:24.737Z,43.81
2023-05-11T16:58:51.402Z,42.78
2023-05-11T17:01:18.088Z,43.02
2023-05-11T17:03:45.046Z,43.26
2023-05-11T17:06:14.523Z,41.07
2023-05-11T17:08:41.882Z,41.86
2023-05-11T17:11:08.699Z,41.80
2023-05-11T17:13:35.398Z,42.92
2023-05-11T17:16:02.391Z,44.33
2023-05-11T17:18:29.192Z,45.92
2023-05-11T17:20:56.269Z,47.64
2023-05-11T17:23:24.672Z,49.09
2023-05-11T17:25:51.926Z,51.63
2023-05-11T17:28:18.639Z,53.41
2023-05-11T17:30:48.812Z,53.90
2023-05-11T17:33:16.372Z,55.48
2023-05-11T17:35:43.252Z,55.78
2023-05-11T17:38:10.059Z,57.09
2023-05-11T17:40:36.649Z,57.13
2023-05-11T17:43:03.380Z,61.28
2023-05-11T17:45:30.128Z,62.84
2023-05-11T17:47:57.215Z,62.51
2023-05-11T17:50:24.044Z,60.88
2023-05-11T17:52:51.312Z,61.66
2023-05-11T17:55:18.589Z,62.38
2023-05-11T17:57:45.488Z,65.15
2023-05-11T18:00:12.667Z,66.05
2023-05-11T18:02:39.573Z,65.24
2023-05-11T18:05:06.960Z,65.94
2023-05-11T18:07:33.921Z,65.90
2023-05-11T18:10:00.534Z,66.37
2023-05-11T18:12:27.685Z,67.91
2023-05-11T18:14:54.483Z,69.07
2023-05-11T18:17:21.992Z,68.93
2023-05-11T18:19:48.709Z,69.77
2023-05-11T18:22:15.979Z,70.42
2023-05-11T18:24:42.740Z,70.79
2023-05-11T18:27:09.396Z,70.45
2023-05-11T18:29:37.422Z,70.61
2023-05-11T18:32:04.361Z,70.64
2023-05-11T18:34:31.331Z,71.81
2023-05-11T18:36:57.968Z,71.78
2023-05-11T18:39:24.651Z,71.67
2023-05-11T18:41:51.261Z,72.11
2023-05-11T18:44:19.302Z,72.44
2023-05-11T18:46:46.245Z,72.61
2023-05-11T18:49:13.126Z,72.85
2023-05-11T18:51:39.840Z,73.23
2023-05-11T18:54:06.668Z,73.63
2023-05-11T18:56:33.362Z,73.70
2023-05-11T18:59:00.076Z,74.00
2023-05-11T19:01:33.315Z,74.35
2023-05-11T19:04:08.979Z,75.00
2023-05-11T19:06:36.327Z,75.09
2023-05-11T19:09:03.058Z,74.65
2023-05-11T19:11:29.912Z,74.58
2023-05-11T19:13:56.588Z,75.28
2023-05-11T19:16:23.182Z,75.44
2023-05-11T19:18:49.949Z,75.44
2023-05-11T19:21:16.992Z,76.38
2023-05-11T19:23:43.650Z,76.63
2023-05-11T19:26:10.293Z,76.86
2023-05-11T19:28:37.003Z,77.30
2023-05-11T19:31:04.930Z,77.37
2023-05-11T19:33:32.089Z,77.25
2023-05-11T19:35:59.060Z,77.56
2023-05-11T19:38:25.771Z,77.46
2023-05-11T19:40:52.800Z,77.35
2023-05-11T19:43:19.643Z,77.94
2023-05-11T19:45:46.498Z,78.02
2023-05-11T19:48:13.963Z,78.09
2023-05-11T19:50:41.413Z,78.42
2023-05-11T19:53:08.092Z,78.74
2023-05-11T19:55:34.879Z,78.98
2023-05-11T19:58:02.081Z,78.78
2023-05-11T20:00:28.948Z,79.12
2023-05-11T20:02:57.119Z,79.91
2023-05-11T20:05:24.061Z,79.67
2023-05-11T20:07:50.805Z,79.96
2023-05-11T20:10:17.759Z,79.93
2023-05-11T20:12:44.501Z,79.47
2023-05-11T20:15:11.619Z,79.62
2023-05-11T20:17:39.545Z,79.57
2023-05-11T20:20:07.428Z,79.94
2023-05-11T20:22:34.119Z,79.92
2023-05-11T20:25:00.902Z,80.12
2023-05-11T20:27:27.550Z,79.95
2023-05-11T20:29:54.864Z,80.19
2023-05-11T20:32:21.528Z,80.56
2023-05-11T20:34:48.375Z,80.50
2023-05-11T20:37:14.981Z,80.75
2023-05-11T20:39:41.659Z,80.30
2023-05-11T20:42:08.710Z,79.58
2023-05-11T20:44:35.428Z,79.43
2023-05-11T20:47:02.214Z,78.62
2023-05-11T20:49:38.380Z,78.21
2023-05-11T20:52:07.208Z,77.88
2023-05-11T20:54:34.989Z,77.85
2023-05-11T20:57:05.081Z,78.64
2023-05-11T21:02:02.305Z,77.95
2023-05-11T21:04:31.113Z,78.41
2023-05-11T21:06:57.799Z,78.60
2023-05-11T21:09:25.332Z,77.64
2023-05-11T21:11:52.206Z,77.51
2023-05-11T21:14:18.891Z,77.36
2023-05-11T21:16:46.144Z,77.82
2023-05-11T21:19:12.954Z,78.34
2023-05-11T21:21:39.653Z,78.82
2023-05-11T21:24:06.467Z,79.94
2023-05-11T21:26:33.149Z,79.08
2023-05-11T21:28:59.955Z,79.39
2023-05-11T21:31:26.618Z,79.04
2023-05-11T21:33:53.296Z,78.76
2023-05-11T21:36:19.961Z,79.56
2023-05-11T21:38:46.591Z,79.83
2023-05-11T21:41:13.249Z,80.19
2023-05-11T21:43:39.980Z,80.36
2023-05-11T21:46:06.631Z,80.17
2023-05-11T21:48:33.327Z,79.83
2023-05-11T21:50:59.969Z,80.20
2023-05-11T21:53:27.135Z,80.56
2023-05-11T21:55:53.821Z,80.59
2023-05-11T21:58:21.013Z,80.52
2023-05-11T22:00:47.684Z,80.97
2023-05-11T22:03:14.456Z,81.17
2023-05-11T22:05:41.506Z,81.47
2023-05-11T22:08:14.961Z,81.51
2023-05-11T22:10:43.157Z,81.57
2023-05-11T22:13:09.829Z,82.23
2023-05-11T22:15:36.587Z,82.22
2023-05-11T22:18:03.638Z,82.16
2023-05-11T22:20:31.796Z,82.26
2023-05-11T22:22:59.193Z,82.38
2023-05-11T22:25:26.128Z,82.29
2023-05-11T22:27:52.917Z,81.91
2023-05-11T22:30:20.235Z,82.24
2023-05-11T22:32:47.385Z,82.36
2023-05-11T22:35:14.357Z,82.81
2023-05-11T22:37:41.013Z,82.56
2023-05-11T22:40:08.840Z,83.11
2023-05-11T22:42:35.679Z,82.71
2023-05-11T22:45:02.498Z,82.85
2023-05-11T22:47:29.526Z,82.90
2023-05-11T22:49:56.428Z,82.84
2023-05-11T22:52:23.104Z,82.94
2023-05-11T22:54:54.717Z,83.16
2023-05-11T22:57:24.027Z,83.02
2023-05-11T22:59:50.920Z,83.21
2023-05-11T23:02:17.702Z,82.91
2023-05-11T23:04:50.148Z,82.96
2023-05-11T23:07:16.878Z,82.87
2023-05-11T23:09:43.809Z,83.48
2023-05-11T23:12:10.570Z,82.97
2023-05-11T23:14:37.339Z,82.56
2023-05-11T23:17:04.033Z,82.86
2023-05-11T23:19:30.660Z,83.05
2023-05-11T23:21:57.376Z,82.93
2023-05-11T23:24:24.002Z,82.97
2023-05-11T23:26:50.792Z,83.23
2023-05-11T23:29:17.422Z,83.35
2023-05-11T23:31:44.236Z,83.01
2023-05-11T23:34:10.880Z,83.65
2023-05-11T23:36:38.160Z,83.81
2023-05-11T23:39:05.416Z,83.37
2023-05-11T23:41:32.521Z,84.01
2023-05-11T23:44:00.205Z,83.67
2023-05-11T23:46:26.894Z,83.91
2023-05-11T23:48:53.658Z,83.70
2023-05-11T23:51:20.293Z,83.73
2023-05-11T23:53:46.852Z,83.75
2023-05-11T23:56:13.619Z,83.54
2023-05-11T23:58:41.437Z,83.77
